Machen, United Kingdom
Current Conditions -  °F | °C
As of 4:50 AM on Tuesday 23 Dec 2014 (Local Time) from EGFF Reporting Station
Moderate Rain Moderate Rain  
Wind Chill: 50°   Ceiling: 300
Heat Index: 50°   Visibility: 1.1mi
Dew Point: 50°   Wind: 21mph
Humidity: 100%   Direction: 250°WSW
Pressure: 30.06"   Gusts: NA
Location:  51.6°N, 3.14°W
Report Text: EGFF 230450Z AUTO 25018KT 1800 RA BKN003 OVC026 10/10 Q1018 RERA REDZ
Loading
Personal Weather Stations






























Interactive Weather Map New forecast layout! Learn more

10-Day Weather Forecast

Advertisements
Track Severe Weather on mobile